This is the latest recevied weather packets stored in our database for station/object SP2WPY-13. If no packets are shown the sender has not sent any weather packets the latest 1 day(s).
| Time | Temp. | Humidity | Pressure | Rain* | Wind** | Luminosity | Snow |
|---|---|---|---|---|---|---|---|
| 1777979181 | 13.89° C | 60% | 1013.3 hPa | - | 1.34 m/s, 41° | - | - |
| 1777978861 | 13.89° C | 55% | 1013.3 hPa | - | 1.79 m/s, 108° | - | - |
| 1777978586 | 14.44° C | 46% | 1013.2 hPa | - | 2.24 m/s, 66° | - | - |
| 1777978267 | 15° C | 43% | 1013.2 hPa | - | 1.79 m/s, 52° | - | - |
| 1777977994 | 15° C | 42% | 1013.2 hPa | - | 1.34 m/s, 55° | - | - |
| 1777977674 | 15.56° C | 42% | 1013.2 hPa | - | 1.79 m/s, 84° | - | - |
| 1777977401 | 15.56° C | 40% | 1013.1 hPa | - | 2.24 m/s, 96° | - | - |
| 1777977081 | 16.11° C | 40% | 1013 hPa | - | 2.24 m/s, 111° | - | - |
| 1777976760 | 16.11° C | 40% | 1012.9 hPa | - | 1.79 m/s, 81° | - | - |
| 1777976487 | 16.11° C | 39% | 1013 hPa | - | 1.79 m/s, 86° | - | - |
| 1777976167 | 17.22° C | 38% | 1013 hPa | - | 2.24 m/s, 103° | - | - |
| 1777975893 | 17.22° C | 37% | 1013.1 hPa | - | 1.34 m/s, 94° | - | - |
| 1777975573 | 17.78° C | 37% | 1013 hPa | - | 1.79 m/s, 116° | - | - |
| 1777975299 | 18.33° C | 37% | 1013 hPa | - | 1.34 m/s, 142° | - | - |
| 1777974980 | 18.89° C | 36% | 1013.1 hPa | - | 2.24 m/s, 126° | - | - |
| 1777974661 | 18.89° C | 35% | 1013.2 hPa | - | 1.34 m/s, 76° | - | - |
| 1777974386 | 18.89° C | 37% | 1013.2 hPa | - | 1.34 m/s, 97° | - | - |
| 1777974066 | 18.33° C | 37% | 1013.3 hPa | - | 2.24 m/s, 109° | - | - |
| 1777973792 | 18.33° C | 36% | 1013.2 hPa | - | 1.79 m/s, 44° | - | - |
| 1777973473 | 18.33° C | 36% | 1013.2 hPa | - | 0.89 m/s, 26° | - | - |
| 1777973199 | 18.33° C | 36% | 1013.2 hPa | - | 2.24 m/s, 48° | - | - |
| 1777972880 | 18.33° C | 37% | 1013.1 hPa | - | 1.34 m/s, 57° | - | - |
| 1777972605 | 18.33° C | 36% | 1013.1 hPa | - | 2.68 m/s, 108° | - | - |
| 1777972286 | 18.33° C | 36% | 1013.1 hPa | - | 1.79 m/s, 95° | - | - |
| 1777971966 | 18.89° C | 36% | 1013.1 hPa | - | 1.79 m/s, 76° | - | - |
* Rain since midnight (hover to see other rain measurements)
** Current wind speed in m/s (hover to see current wind gust speed)